Terminal Aerodrome Forecast
Issued by NWS

Home | Current Version | Previous Version | Text Only | Print | Product List | Glossary On
Versions: 1 2 3 4 5 6 7 8 9 10 11 12 13 14 15 16 17 18 19 20 21 22 23 24 25 26 27 28 29 30
000
FTAK31 PANC 201742
TAFADL
TAF
PADL 201742Z 2018/2118 VRB06KT P6SM VCSH FEW020 BKN045
     FM210000 35008G12KT P6SM BKN040
     FM210500 33006KT P6SM FEW050=

USA.gov is the U.S. government's official web portal to all federal, state and local government web resources and services.